sensor_id;sensor_type;location;lat;lon;timestamp;P1;durP1;ratioP1;P2;durP2;ratioP2
75218;SDS011;63801;49.414;19.474;2022-11-02T00:00:43;32.33;;;14.65;;
75218;SDS011;63801;49.414;19.474;2022-11-02T00:02:43;34.15;;;17.58;;
75218;SDS011;63801;49.414;19.474;2022-11-02T00:04:44;29.38;;;16.05;;
75218;SDS011;63801;49.414;19.474;2022-11-02T00:06:44;35.53;;;17.42;;
75218;SDS011;63801;49.414;19.474;2022-11-02T00:08:44;34.42;;;17.48;;
75218;SDS011;63801;49.414;19.474;2022-11-02T00:10:45;36.45;;;18.25;;
75218;SDS011;63801;49.414;19.474;2022-11-02T00:12:45;44.40;;;21.65;;
75218;SDS011;63801;49.414;19.474;2022-11-02T00:14:46;44.40;;;21.80;;
75218;SDS011;63801;49.414;19.474;2022-11-02T00:16:46;39.63;;;21.42;;
75218;SDS011;63801;49.414;19.474;2022-11-02T00:18:50;35.95;;;17.73;;
75218;SDS011;63801;49.414;19.474;2022-11-02T00:20:55;37.83;;;19.08;;
75218;SDS011;63801;49.414;19.474;2022-11-02T00:22:57;39.58;;;18.80;;
75218;SDS011;63801;49.414;19.474;2022-11-02T00:27:05;35.35;;;18.27;;
75218;SDS011;63801;49.414;19.474;2022-11-02T00:29:06;33.83;;;17.27;;
75218;SDS011;63801;49.414;19.474;2022-11-02T00:31:07;37.47;;;17.98;;
75218;SDS011;63801;49.414;19.474;2022-11-02T00:33:07;32.88;;;17.65;;
75218;SDS011;63801;49.414;19.474;2022-11-02T00:35:08;34.65;;;18.88;;
75218;SDS011;63801;49.414;19.474;2022-11-02T00:37:09;36.13;;;17.30;;
75218;SDS011;63801;49.414;19.474;2022-11-02T00:39:09;30.77;;;16.48;;
75218;SDS011;63801;49.414;19.474;2022-11-02T00:41:10;32.47;;;15.93;;
75218;SDS011;63801;49.414;19.474;2022-11-02T00:43:11;28.02;;;15.05;;
75218;SDS011;63801;49.414;19.474;2022-11-02T00:45:12;36.50;;;17.98;;
75218;SDS011;63801;49.414;19.474;2022-11-02T00:47:12;34.63;;;16.50;;
75218;SDS011;63801;49.414;19.474;2022-11-02T00:49:12;29.92;;;15.07;;
75218;SDS011;63801;49.414;19.474;2022-11-02T00:51:13;27.20;;;14.10;;
75218;SDS011;63801;49.414;19.474;2022-11-02T00:53:13;24.85;;;13.30;;
75218;SDS011;63801;49.414;19.474;2022-11-02T00:55:13;29.50;;;13.18;;
75218;SDS011;63801;49.414;19.474;2022-11-02T00:57:14;27.00;;;12.93;;
75218;SDS011;63801;49.414;19.474;2022-11-02T00:59:14;28.48;;;12.68;;
75218;SDS011;63801;49.414;19.474;2022-11-02T01:01:15;23.50;;;12.82;;
75218;SDS011;63801;49.414;19.474;2022-11-02T01:03:15;27.80;;;12.95;;
75218;SDS011;63801;49.414;19.474;2022-11-02T01:05:15;23.17;;;12.60;;
75218;SDS011;63801;49.414;19.474;2022-11-02T01:07:15;53.80;;;31.55;;
75218;SDS011;63801;49.414;19.474;2022-11-02T01:09:16;57.97;;;35.53;;
75218;SDS011;63801;49.414;19.474;2022-11-02T01:11:17;44.05;;;25.33;;
75218;SDS011;63801;49.414;19.474;2022-11-02T01:13:20;29.75;;;14.63;;
75218;SDS011;63801;49.414;19.474;2022-11-02T01:15:20;28.42;;;13.90;;
75218;SDS011;63801;49.414;19.474;2022-11-02T01:17:20;28.00;;;13.60;;
75218;SDS011;63801;49.414;19.474;2022-11-02T01:19:21;24.45;;;13.73;;
75218;SDS011;63801;49.414;19.474;2022-11-02T01:21:21;29.65;;;12.57;;
75218;SDS011;63801;49.414;19.474;2022-11-02T01:23:22;26.55;;;13.48;;
75218;SDS011;63801;49.414;19.474;2022-11-02T01:25:22;26.10;;;14.30;;
75218;SDS011;63801;49.414;19.474;2022-11-02T01:27:23;27.85;;;13.35;;
75218;SDS011;63801;49.414;19.474;2022-11-02T01:29:23;25.98;;;13.55;;
75218;SDS011;63801;49.414;19.474;2022-11-02T01:31:23;26.02;;;15.18;;
75218;SDS011;63801;49.414;19.474;2022-11-02T01:33:27;26.95;;;14.10;;
75218;SDS011;63801;49.414;19.474;2022-11-02T01:35:28;27.77;;;13.82;;
75218;SDS011;63801;49.414;19.474;2022-11-02T01:37:28;24.70;;;12.68;;
75218;SDS011;63801;49.414;19.474;2022-11-02T01:39:28;26.58;;;13.80;;
75218;SDS011;63801;49.414;19.474;2022-11-02T01:41:29;22.27;;;11.65;;
75218;SDS011;63801;49.414;19.474;2022-11-02T01:45:29;29.98;;;14.05;;
75218;SDS011;63801;49.414;19.474;2022-11-02T01:47:32;27.27;;;13.65;;
75218;SDS011;63801;49.414;19.474;2022-11-02T01:49:37;28.85;;;12.57;;
75218;SDS011;63801;49.414;19.474;2022-11-02T01:51:43;28.90;;;13.57;;
75218;SDS011;63801;49.414;19.474;2022-11-02T01:53:48;23.20;;;13.07;;
75218;SDS011;63801;49.414;19.474;2022-11-02T01:55:52;27.23;;;12.27;;
75218;SDS011;63801;49.414;19.474;2022-11-02T01:57:57;23.58;;;12.27;;
75218;SDS011;63801;49.414;19.474;2022-11-02T02:00:03;24.02;;;11.80;;
75218;SDS011;63801;49.414;19.474;2022-11-02T02:02:12;25.20;;;11.43;;
75218;SDS011;63801;49.414;19.474;2022-11-02T02:04:16;24.98;;;11.57;;
75218;SDS011;63801;49.414;19.474;2022-11-02T02:06:17;21.30;;;11.05;;
75218;SDS011;63801;49.414;19.474;2022-11-02T02:08:19;21.73;;;11.00;;
75218;SDS011;63801;49.414;19.474;2022-11-02T02:10:22;24.27;;;11.02;;
75218;SDS011;63801;49.414;19.474;2022-11-02T02:12:23;27.00;;;11.88;;
75218;SDS011;63801;49.414;19.474;2022-11-02T02:14:24;23.10;;;11.55;;
75218;SDS011;63801;49.414;19.474;2022-11-02T02:18:38;22.87;;;11.57;;
75218;SDS011;63801;49.414;19.474;2022-11-02T02:26:04;24.40;;;13.15;;
75218;SDS011;63801;49.414;19.474;2022-11-02T02:30:10;21.42;;;13.05;;
75218;SDS011;63801;49.414;19.474;2022-11-02T02:32:19;21.85;;;12.18;;
75218;SDS011;63801;49.414;19.474;2022-11-02T02:34:28;23.23;;;12.15;;
75218;SDS011;63801;49.414;19.474;2022-11-02T02:36:48;22.70;;;11.73;;
75218;SDS011;63801;49.414;19.474;2022-11-02T02:38:56;21.88;;;11.52;;
75218;SDS011;63801;49.414;19.474;2022-11-02T02:41:13;23.30;;;11.82;;
75218;SDS011;63801;49.414;19.474;2022-11-02T02:43:27;23.83;;;12.45;;
75218;SDS011;63801;49.414;19.474;2022-11-02T02:45:41;28.45;;;14.55;;
75218;SDS011;63801;49.414;19.474;2022-11-02T02:47:53;34.28;;;16.55;;
75218;SDS011;63801;49.414;19.474;2022-11-02T02:50:19;32.40;;;17.20;;
75218;SDS011;63801;49.414;19.474;2022-11-02T02:52:23;33.60;;;17.27;;
75218;SDS011;63801;49.414;19.474;2022-11-02T02:54:45;30.05;;;16.90;;
75218;SDS011;63801;49.414;19.474;2022-11-02T02:56:49;24.90;;;12.38;;
75218;SDS011;63801;49.414;19.474;2022-11-02T02:58:55;19.52;;;10.77;;
75218;SDS011;63801;49.414;19.474;2022-11-02T03:01:01;19.23;;;9.73;;
75218;SDS011;63801;49.414;19.474;2022-11-02T03:03:04;25.73;;;10.25;;
75218;SDS011;63801;49.414;19.474;2022-11-02T03:05:23;26.40;;;11.15;;
75218;SDS011;63801;49.414;19.474;2022-11-02T03:07:29;19.58;;;10.13;;
75218;SDS011;63801;49.414;19.474;2022-11-02T03:09:37;22.10;;;9.77;;
75218;SDS011;63801;49.414;19.474;2022-11-02T03:14:32;23.45;;;12.50;;
75218;SDS011;63801;49.414;19.474;2022-11-02T03:18:48;26.00;;;13.60;;
75218;SDS011;63801;49.414;19.474;2022-11-02T03:20:57;35.35;;;16.08;;
75218;SDS011;63801;49.414;19.474;2022-11-02T03:23:26;39.53;;;16.45;;
75218;SDS011;63801;49.414;19.474;2022-11-02T03:25:38;33.05;;;17.55;;
75218;SDS011;63801;49.414;19.474;2022-11-02T03:30:17;26.85;;;14.60;;
75218;SDS011;63801;49.414;19.474;2022-11-02T03:32:23;24.88;;;13.98;;
75218;SDS011;63801;49.414;19.474;2022-11-02T03:34:48;21.80;;;11.68;;
75218;SDS011;63801;49.414;19.474;2022-11-02T03:36:59;23.33;;;11.50;;
75218;SDS011;63801;49.414;19.474;2022-11-02T03:39:07;23.75;;;11.45;;
75218;SDS011;63801;49.414;19.474;2022-11-02T03:41:10;22.35;;;11.23;;
75218;SDS011;63801;49.414;19.474;2022-11-02T03:43:21;17.42;;;9.02;;
75218;SDS011;63801;49.414;19.474;2022-11-02T03:45:26;19.52;;;9.00;;
75218;SDS011;63801;49.414;19.474;2022-11-02T03:47:32;17.30;;;8.77;;
75218;SDS011;63801;49.414;19.474;2022-11-02T03:49:35;19.90;;;8.40;;
75218;SDS011;63801;49.414;19.474;2022-11-02T03:51:39;23.02;;;8.85;;
75218;SDS011;63801;49.414;19.474;2022-11-02T03:54:01;27.40;;;11.88;;
75218;SDS011;63801;49.414;19.474;2022-11-02T03:56:08;25.30;;;11.75;;
75218;SDS011;63801;49.414;19.474;2022-11-02T03:58:28;26.65;;;12.10;;
75218;SDS011;63801;49.414;19.474;2022-11-02T04:00:29;27.63;;;13.18;;
75218;SDS011;63801;49.414;19.474;2022-11-02T04:02:34;26.25;;;13.40;;
75218;SDS011;63801;49.414;19.474;2022-11-02T04:04:46;32.83;;;14.30;;
75218;SDS011;63801;49.414;19.474;2022-11-02T04:06:50;28.17;;;15.02;;
75218;SDS011;63801;49.414;19.474;2022-11-02T04:08:58;32.17;;;16.20;;
75218;SDS011;63801;49.414;19.474;2022-11-02T04:10:59;32.85;;;16.48;;
75218;SDS011;63801;49.414;19.474;2022-11-02T04:13:17;31.48;;;16.58;;
75218;SDS011;63801;49.414;19.474;2022-11-02T04:15:36;20.52;;;10.23;;
75218;SDS011;63801;49.414;19.474;2022-11-02T04:17:37;23.63;;;11.07;;
75218;SDS011;63801;49.414;19.474;2022-11-02T04:19:56;18.63;;;9.65;;
75218;SDS011;63801;49.414;19.474;2022-11-02T04:21:56;18.52;;;8.68;;
75218;SDS011;63801;49.414;19.474;2022-11-02T04:24:15;21.98;;;8.95;;
75218;SDS011;63801;49.414;19.474;2022-11-02T04:26:34;16.75;;;9.02;;
75218;SDS011;63801;49.414;19.474;2022-11-02T04:28:34;18.73;;;9.63;;
75218;SDS011;63801;49.414;19.474;2022-11-02T04:30:35;21.30;;;9.27;;
75218;SDS011;63801;49.414;19.474;2022-11-02T04:32:39;18.67;;;8.35;;
75218;SDS011;63801;49.414;19.474;2022-11-02T04:34:59;19.17;;;9.68;;
75218;SDS011;63801;49.414;19.474;2022-11-02T04:36:59;15.63;;;8.13;;
75218;SDS011;63801;49.414;19.474;2022-11-02T04:38:59;17.58;;;7.72;;
75218;SDS011;63801;49.414;19.474;2022-11-02T04:41:00;18.02;;;8.20;;
75218;SDS011;63801;49.414;19.474;2022-11-02T04:43:19;18.20;;;8.32;;
75218;SDS011;63801;49.414;19.474;2022-11-02T04:45:19;15.32;;;8.68;;
75218;SDS011;63801;49.414;19.474;2022-11-02T04:47:19;23.33;;;8.45;;
75218;SDS011;63801;49.414;19.474;2022-11-02T04:49:20;16.63;;;8.00;;
75218;SDS011;63801;49.414;19.474;2022-11-02T04:51:22;19.77;;;7.93;;
75218;SDS011;63801;49.414;19.474;2022-11-02T04:53:23;21.60;;;9.20;;
75218;SDS011;63801;49.414;19.474;2022-11-02T04:55:24;23.52;;;13.23;;
75218;SDS011;63801;49.414;19.474;2022-11-02T04:57:25;25.95;;;13.57;;
75218;SDS011;63801;49.414;19.474;2022-11-02T04:59:34;20.00;;;11.25;;
75218;SDS011;63801;49.414;19.474;2022-11-02T05:01:35;22.88;;;12.63;;
75218;SDS011;63801;49.414;19.474;2022-11-02T05:03:35;26.88;;;11.60;;
75218;SDS011;63801;49.414;19.474;2022-11-02T05:05:47;22.92;;;9.93;;
75218;SDS011;63801;49.414;19.474;2022-11-02T05:07:53;20.63;;;10.00;;
75218;SDS011;63801;49.414;19.474;2022-11-02T05:09:54;18.60;;;9.52;;
75218;SDS011;63801;49.414;19.474;2022-11-02T05:11:54;21.90;;;9.95;;
75218;SDS011;63801;49.414;19.474;2022-11-02T05:13:54;21.05;;;9.07;;
75218;SDS011;63801;49.414;19.474;2022-11-02T05:15:55;20.70;;;9.13;;
75218;SDS011;63801;49.414;19.474;2022-11-02T05:17:56;17.88;;;9.05;;
75218;SDS011;63801;49.414;19.474;2022-11-02T05:19:56;19.40;;;8.98;;
75218;SDS011;63801;49.414;19.474;2022-11-02T05:21:57;17.20;;;8.88;;
75218;SDS011;63801;49.414;19.474;2022-11-02T05:23:57;16.60;;;8.35;;
75218;SDS011;63801;49.414;19.474;2022-11-02T05:26:02;20.20;;;8.60;;
75218;SDS011;63801;49.414;19.474;2022-11-02T05:28:04;17.95;;;8.77;;
75218;SDS011;63801;49.414;19.474;2022-11-02T05:30:04;16.85;;;8.50;;
75218;SDS011;63801;49.414;19.474;2022-11-02T05:32:05;28.50;;;13.80;;
75218;SDS011;63801;49.414;19.474;2022-11-02T05:34:05;32.28;;;15.65;;
75218;SDS011;63801;49.414;19.474;2022-11-02T05:36:06;37.90;;;19.55;;
75218;SDS011;63801;49.414;19.474;2022-11-02T05:38:06;45.90;;;20.70;;
75218;SDS011;63801;49.414;19.474;2022-11-02T05:40:07;42.70;;;20.48;;
75218;SDS011;63801;49.414;19.474;2022-11-02T05:42:07;40.50;;;18.90;;
75218;SDS011;63801;49.414;19.474;2022-11-02T05:44:20;36.65;;;19.65;;
75218;SDS011;63801;49.414;19.474;2022-11-02T05:46:23;34.45;;;18.17;;
75218;SDS011;63801;49.414;19.474;2022-11-02T05:48:29;40.95;;;19.67;;
75218;SDS011;63801;49.414;19.474;2022-11-02T05:50:31;34.85;;;18.50;;
75218;SDS011;63801;49.414;19.474;2022-11-02T05:52:31;37.00;;;19.35;;
75218;SDS011;63801;49.414;19.474;2022-11-02T05:54:33;40.90;;;21.80;;
75218;SDS011;63801;49.414;19.474;2022-11-02T05:56:33;35.70;;;20.35;;
75218;SDS011;63801;49.414;19.474;2022-11-02T05:58:34;39.22;;;20.17;;
75218;SDS011;63801;49.414;19.474;2022-11-02T06:00:35;40.13;;;20.25;;
75218;SDS011;63801;49.414;19.474;2022-11-02T06:02:35;41.33;;;20.70;;
75218;SDS011;63801;49.414;19.474;2022-11-02T06:04:35;43.90;;;21.45;;
75218;SDS011;63801;49.414;19.474;2022-11-02T06:06:36;40.95;;;22.95;;
75218;SDS011;63801;49.414;19.474;2022-11-02T06:08:37;44.08;;;22.35;;
75218;SDS011;63801;49.414;19.474;2022-11-02T06:10:38;37.10;;;21.23;;
75218;SDS011;63801;49.414;19.474;2022-11-02T06:12:41;36.38;;;19.65;;
75218;SDS011;63801;49.414;19.474;2022-11-02T06:14:42;37.20;;;19.88;;
75218;SDS011;63801;49.414;19.474;2022-11-02T06:16:42;27.98;;;13.43;;
75218;SDS011;63801;49.414;19.474;2022-11-02T06:18:42;18.45;;;9.52;;
75218;SDS011;63801;49.414;19.474;2022-11-02T06:20:43;18.23;;;8.88;;
75218;SDS011;63801;49.414;19.474;2022-11-02T06:22:44;16.60;;;8.60;;
75218;SDS011;63801;49.414;19.474;2022-11-02T06:24:44;16.55;;;7.22;;
75218;SDS011;63801;49.414;19.474;2022-11-02T06:26:45;14.55;;;7.80;;
75218;SDS011;63801;49.414;19.474;2022-11-02T06:28:45;15.52;;;7.57;;
75218;SDS011;63801;49.414;19.474;2022-11-02T06:30:46;13.98;;;6.35;;
75218;SDS011;63801;49.414;19.474;2022-11-02T06:32:47;17.00;;;6.88;;
75218;SDS011;63801;49.414;19.474;2022-11-02T06:34:48;32.43;;;18.63;;
75218;SDS011;63801;49.414;19.474;2022-11-02T06:36:49;34.03;;;18.40;;
75218;SDS011;63801;49.414;19.474;2022-11-02T06:38:49;32.45;;;17.70;;
75218;SDS011;63801;49.414;19.474;2022-11-02T06:40:56;26.98;;;17.20;;
75218;SDS011;63801;49.414;19.474;2022-11-02T06:42:58;29.30;;;15.80;;
75218;SDS011;63801;49.414;19.474;2022-11-02T06:44:58;22.25;;;12.20;;
75218;SDS011;63801;49.414;19.474;2022-11-02T06:47:01;22.15;;;13.52;;
75218;SDS011;63801;49.414;19.474;2022-11-02T06:49:01;30.83;;;15.93;;
75218;SDS011;63801;49.414;19.474;2022-11-02T06:51:02;28.17;;;16.33;;
75218;SDS011;63801;49.414;19.474;2022-11-02T06:53:12;28.08;;;15.55;;
75218;SDS011;63801;49.414;19.474;2022-11-02T06:55:13;29.30;;;16.10;;
75218;SDS011;63801;49.414;19.474;2022-11-02T06:57:14;26.00;;;14.67;;
75218;SDS011;63801;49.414;19.474;2022-11-02T06:59:15;22.15;;;11.00;;
75218;SDS011;63801;49.414;19.474;2022-11-02T07:01:15;24.75;;;14.30;;
75218;SDS011;63801;49.414;19.474;2022-11-02T07:03:15;25.27;;;14.27;;
75218;SDS011;63801;49.414;19.474;2022-11-02T07:05:16;21.20;;;12.52;;
75218;SDS011;63801;49.414;19.474;2022-11-02T07:07:16;23.92;;;14.82;;
75218;SDS011;63801;49.414;19.474;2022-11-02T07:09:17;23.45;;;14.43;;
75218;SDS011;63801;49.414;19.474;2022-11-02T07:11:17;24.38;;;13.32;;
75218;SDS011;63801;49.414;19.474;2022-11-02T07:13:17;20.40;;;11.98;;
75218;SDS011;63801;49.414;19.474;2022-11-02T07:15:18;17.25;;;9.15;;
75218;SDS011;63801;49.414;19.474;2022-11-02T07:17:19;18.25;;;7.90;;
75218;SDS011;63801;49.414;19.474;2022-11-02T07:19:19;21.35;;;8.48;;
75218;SDS011;63801;49.414;19.474;2022-11-02T07:21:19;12.98;;;6.82;;
75218;SDS011;63801;49.414;19.474;2022-11-02T07:23:20;15.35;;;6.38;;
75218;SDS011;63801;49.414;19.474;2022-11-02T07:27:24;11.63;;;6.15;;
75218;SDS011;63801;49.414;19.474;2022-11-02T07:29:24;20.08;;;6.20;;
75218;SDS011;63801;49.414;19.474;2022-11-02T07:31:24;11.10;;;5.60;;
75218;SDS011;63801;49.414;19.474;2022-11-02T07:33:24;17.95;;;6.20;;
75218;SDS011;63801;49.414;19.474;2022-11-02T07:35:25;10.30;;;5.40;;
75218;SDS011;63801;49.414;19.474;2022-11-02T07:37:25;11.95;;;5.80;;
75218;SDS011;63801;49.414;19.474;2022-11-02T07:39:26;9.23;;;5.10;;
75218;SDS011;63801;49.414;19.474;2022-11-02T07:41:26;8.90;;;5.00;;
75218;SDS011;63801;49.414;19.474;2022-11-02T07:43:26;12.90;;;4.47;;
75218;SDS011;63801;49.414;19.474;2022-11-02T07:45:27;8.63;;;4.65;;
75218;SDS011;63801;49.414;19.474;2022-11-02T07:47:28;9.80;;;4.65;;
75218;SDS011;63801;49.414;19.474;2022-11-02T07:49:37;13.13;;;5.10;;
75218;SDS011;63801;49.414;19.474;2022-11-02T07:51:37;8.77;;;4.50;;
75218;SDS011;63801;49.414;19.474;2022-11-02T07:53:37;7.18;;;3.95;;
75218;SDS011;63801;49.414;19.474;2022-11-02T07:55:38;8.70;;;4.93;;
75218;SDS011;63801;49.414;19.474;2022-11-02T07:57:39;13.75;;;4.93;;
75218;SDS011;63801;49.414;19.474;2022-11-02T07:59:39;7.05;;;4.18;;
75218;SDS011;63801;49.414;19.474;2022-11-02T08:01:40;7.25;;;3.58;;
75218;SDS011;63801;49.414;19.474;2022-11-02T08:03:40;7.63;;;3.72;;
75218;SDS011;63801;49.414;19.474;2022-11-02T08:05:41;8.38;;;3.35;;
75218;SDS011;63801;49.414;19.474;2022-11-02T08:07:42;8.38;;;4.20;;
75218;SDS011;63801;49.414;19.474;2022-11-02T08:09:42;10.18;;;4.50;;
75218;SDS011;63801;49.414;19.474;2022-11-02T08:11:42;9.25;;;5.10;;
75218;SDS011;63801;49.414;19.474;2022-11-02T08:13:43;15.65;;;6.30;;
75218;SDS011;63801;49.414;19.474;2022-11-02T08:15:43;15.00;;;6.15;;
75218;SDS011;63801;49.414;19.474;2022-11-02T08:17:44;12.70;;;6.40;;
75218;SDS011;63801;49.414;19.474;2022-11-02T08:19:44;11.95;;;5.97;;
75218;SDS011;63801;49.414;19.474;2022-11-02T08:21:44;16.25;;;6.72;;
75218;SDS011;63801;49.414;19.474;2022-11-02T08:23:44;17.92;;;7.15;;
75218;SDS011;63801;49.414;19.474;2022-11-02T08:25:45;19.40;;;7.82;;
75218;SDS011;63801;49.414;19.474;2022-11-02T08:27:47;28.45;;;8.55;;
75218;SDS011;63801;49.414;19.474;2022-11-02T08:29:48;17.38;;;5.80;;
75218;SDS011;63801;49.414;19.474;2022-11-02T08:31:48;35.28;;;9.18;;
75218;SDS011;63801;49.414;19.474;2022-11-02T08:33:48;25.15;;;5.90;;
75218;SDS011;63801;49.414;19.474;2022-11-02T08:35:49;35.95;;;8.35;;
75218;SDS011;63801;49.414;19.474;2022-11-02T08:37:55;43.08;;;7.65;;
75218;SDS011;63801;49.414;19.474;2022-11-02T08:39:56;9.93;;;2.78;;
75218;SDS011;63801;49.414;19.474;2022-11-02T08:41:56;12.98;;;3.13;;
75218;SDS011;63801;49.414;19.474;2022-11-02T08:43:56;4.18;;;1.60;;
75218;SDS011;63801;49.414;19.474;2022-11-02T08:45:58;5.35;;;1.52;;
75218;SDS011;63801;49.414;19.474;2022-11-02T08:47:58;1.83;;;1.20;;
75218;SDS011;63801;49.414;19.474;2022-11-02T08:49:59;3.47;;;1.50;;
75218;SDS011;63801;49.414;19.474;2022-11-02T08:51:59;5.68;;;1.90;;
75218;SDS011;63801;49.414;19.474;2022-11-02T08:53:59;2.92;;;1.50;;
75218;SDS011;63801;49.414;19.474;2022-11-02T08:56:00;2.53;;;1.70;;
75218;SDS011;63801;49.414;19.474;2022-11-02T08:58:00;4.30;;;1.55;;
75218;SDS011;63801;49.414;19.474;2022-11-02T09:00:01;3.75;;;1.65;;
75218;SDS011;63801;49.414;19.474;2022-11-02T09:02:01;5.05;;;2.08;;
75218;SDS011;63801;49.414;19.474;2022-11-02T09:04:01;4.00;;;1.83;;
75218;SDS011;63801;49.414;19.474;2022-11-02T09:06:02;6.20;;;2.38;;
75218;SDS011;63801;49.414;19.474;2022-11-02T09:08:03;5.15;;;2.20;;
75218;SDS011;63801;49.414;19.474;2022-11-02T09:10:05;4.75;;;2.08;;
75218;SDS011;63801;49.414;19.474;2022-11-02T09:12:06;7.97;;;2.30;;
75218;SDS011;63801;49.414;19.474;2022-11-02T09:14:06;6.80;;;2.20;;
75218;SDS011;63801;49.414;19.474;2022-11-02T09:16:07;5.07;;;1.95;;
75218;SDS011;63801;49.414;19.474;2022-11-02T09:18:08;3.83;;;2.03;;
75218;SDS011;63801;49.414;19.474;2022-11-02T09:20:08;4.05;;;1.60;;
75218;SDS011;63801;49.414;19.474;2022-11-02T09:22:09;2.97;;;1.60;;
75218;SDS011;63801;49.414;19.474;2022-11-02T09:24:09;3.80;;;1.38;;
75218;SDS011;63801;49.414;19.474;2022-11-02T09:26:10;4.50;;;1.90;;
75218;SDS011;63801;49.414;19.474;2022-11-02T09:28:10;2.70;;;1.27;;
75218;SDS011;63801;49.414;19.474;2022-11-02T09:30:12;2.50;;;1.27;;
75218;SDS011;63801;49.414;19.474;2022-11-02T09:32:12;4.10;;;1.40;;
75218;SDS011;63801;49.414;19.474;2022-11-02T09:34:13;2.50;;;1.43;;
75218;SDS011;63801;49.414;19.474;2022-11-02T09:36:13;4.07;;;1.38;;
75218;SDS011;63801;49.414;19.474;2022-11-02T09:38:14;3.75;;;1.35;;
75218;SDS011;63801;49.414;19.474;2022-11-02T09:40:22;2.75;;;1.17;;
75218;SDS011;63801;49.414;19.474;2022-11-02T09:44:46;3.13;;;1.30;;
75218;SDS011;63801;49.414;19.474;2022-11-02T09:46:52;5.55;;;1.33;;
75218;SDS011;63801;49.414;19.474;2022-11-02T09:49:03;2.92;;;1.30;;
75218;SDS011;63801;49.414;19.474;2022-11-02T09:51:19;3.13;;;1.60;;
75218;SDS011;63801;49.414;19.474;2022-11-02T09:53:25;3.55;;;1.30;;
75218;SDS011;63801;49.414;19.474;2022-11-02T09:55:33;6.05;;;1.40;;
75218;SDS011;63801;49.414;19.474;2022-11-02T09:57:37;5.30;;;1.23;;
75218;SDS011;63801;49.414;19.474;2022-11-02T09:59:42;3.75;;;1.30;;
75218;SDS011;63801;49.414;19.474;2022-11-02T10:06:44;3.35;;;1.33;;
75218;SDS011;63801;49.414;19.474;2022-11-02T10:15:59;3.97;;;1.40;;
75218;SDS011;63801;49.414;19.474;2022-11-02T10:18:04;1.88;;;1.40;;
75218;SDS011;63801;49.414;19.474;2022-11-02T10:20:32;3.22;;;2.17;;
75218;SDS011;63801;49.414;19.474;2022-11-02T10:22:40;2.90;;;1.33;;
75218;SDS011;63801;49.414;19.474;2022-11-02T10:24:45;8.80;;;1.48;;
75218;SDS011;63801;49.414;19.474;2022-11-02T10:26:47;4.65;;;1.58;;
75218;SDS011;63801;49.414;19.474;2022-11-02T10:28:48;4.72;;;1.63;;
75218;SDS011;63801;49.414;19.474;2022-11-02T10:30:55;3.05;;;1.30;;
75218;SDS011;63801;49.414;19.474;2022-11-02T10:32:56;3.17;;;1.30;;
75218;SDS011;63801;49.414;19.474;2022-11-02T10:34:57;3.80;;;1.50;;
75218;SDS011;63801;49.414;19.474;2022-11-02T10:39:19;2.65;;;1.40;;
75218;SDS011;63801;49.414;19.474;2022-11-02T10:41:55;3.20;;;1.48;;
75218;SDS011;63801;49.414;19.474;2022-11-02T10:48:57;4.10;;;1.20;;
75218;SDS011;63801;49.414;19.474;2022-11-02T10:51:09;6.07;;;1.67;;
75218;SDS011;63801;49.414;19.474;2022-11-02T10:53:12;9.45;;;4.20;;
75218;SDS011;63801;49.414;19.474;2022-11-02T10:55:21;3.78;;;1.70;;
75218;SDS011;63801;49.414;19.474;2022-11-02T10:57:26;3.40;;;1.17;;
75218;SDS011;63801;49.414;19.474;2022-11-02T10:59:27;2.75;;;1.48;;
75218;SDS011;63801;49.414;19.474;2022-11-02T11:01:28;3.67;;;1.42;;
75218;SDS011;63801;49.414;19.474;2022-11-02T11:03:30;4.78;;;1.55;;
75218;SDS011;63801;49.414;19.474;2022-11-02T11:05:31;2.65;;;1.42;;
75218;SDS011;63801;49.414;19.474;2022-11-02T11:07:33;3.40;;;1.60;;
75218;SDS011;63801;49.414;19.474;2022-11-02T11:09:49;3.78;;;1.60;;
75218;SDS011;63801;49.414;19.474;2022-11-02T11:11:57;4.80;;;1.40;;
75218;SDS011;63801;49.414;19.474;2022-11-02T11:14:01;2.53;;;1.60;;
75218;SDS011;63801;49.414;19.474;2022-11-02T11:16:14;3.92;;;1.50;;
75218;SDS011;63801;49.414;19.474;2022-11-02T11:18:16;3.42;;;1.20;;
75218;SDS011;63801;49.414;19.474;2022-11-02T11:20:40;2.67;;;1.33;;
75218;SDS011;63801;49.414;19.474;2022-11-02T11:22:40;5.13;;;1.50;;
75218;SDS011;63801;49.414;19.474;2022-11-02T11:24:40;2.45;;;1.48;;
75218;SDS011;63801;49.414;19.474;2022-11-02T11:26:40;3.67;;;1.35;;
75218;SDS011;63801;49.414;19.474;2022-11-02T11:28:51;3.88;;;1.33;;
75218;SDS011;63801;49.414;19.474;2022-11-02T11:33:13;5.75;;;1.85;;
75218;SDS011;63801;49.414;19.474;2022-11-02T11:35:16;2.45;;;1.30;;
75218;SDS011;63801;49.414;19.474;2022-11-02T11:37:18;6.40;;;1.80;;
75218;SDS011;63801;49.414;19.474;2022-11-02T11:39:23;3.13;;;1.60;;
75218;SDS011;63801;49.414;19.474;2022-11-02T11:41:27;5.22;;;1.60;;
75218;SDS011;63801;49.414;19.474;2022-11-02T11:43:30;2.90;;;1.50;;
75218;SDS011;63801;49.414;19.474;2022-11-02T11:45:37;5.07;;;1.77;;
75218;SDS011;63801;49.414;19.474;2022-11-02T11:47:38;3.22;;;1.33;;
75218;SDS011;63801;49.414;19.474;2022-11-02T11:49:46;3.03;;;1.63;;
75218;SDS011;63801;49.414;19.474;2022-11-02T11:51:49;2.33;;;1.42;;
75218;SDS011;63801;49.414;19.474;2022-11-02T11:56:23;3.90;;;1.60;;
75218;SDS011;63801;49.414;19.474;2022-11-02T11:58:25;3.40;;;1.67;;
75218;SDS011;63801;49.414;19.474;2022-11-02T12:00:29;6.15;;;1.67;;
75218;SDS011;63801;49.414;19.474;2022-11-02T12:04:35;3.77;;;1.30;;
75218;SDS011;63801;49.414;19.474;2022-11-02T12:06:41;2.83;;;1.45;;
75218;SDS011;63801;49.414;19.474;2022-11-02T12:13:40;3.33;;;1.38;;
75218;SDS011;63801;49.414;19.474;2022-11-02T12:15:54;3.83;;;1.40;;
75218;SDS011;63801;49.414;19.474;2022-11-02T12:24:45;2.95;;;1.40;;
75218;SDS011;63801;49.414;19.474;2022-11-02T12:27:22;4.25;;;1.45;;
75218;SDS011;63801;49.414;19.474;2022-11-02T12:31:57;2.80;;;1.50;;
75218;SDS011;63801;49.414;19.474;2022-11-02T12:36:23;3.05;;;1.40;;
75218;SDS011;63801;49.414;19.474;2022-11-02T12:43:10;4.28;;;1.50;;
75218;SDS011;63801;49.414;19.474;2022-11-02T12:45:24;3.05;;;1.58;;
75218;SDS011;63801;49.414;19.474;2022-11-02T12:47:44;5.85;;;1.88;;
75218;SDS011;63801;49.414;19.474;2022-11-02T12:51:59;3.20;;;1.70;;
75218;SDS011;63801;49.414;19.474;2022-11-02T12:54:16;5.40;;;1.80;;
75218;SDS011;63801;49.414;19.474;2022-11-02T12:56:26;6.97;;;1.90;;
75218;SDS011;63801;49.414;19.474;2022-11-02T12:58:44;4.22;;;1.83;;
75218;SDS011;63801;49.414;19.474;2022-11-02T13:00:45;3.80;;;2.03;;
75218;SDS011;63801;49.414;19.474;2022-11-02T13:02:56;4.25;;;1.90;;
75218;SDS011;63801;49.414;19.474;2022-11-02T13:07:17;5.22;;;2.00;;
75218;SDS011;63801;49.414;19.474;2022-11-02T13:09:39;2.92;;;1.80;;
75218;SDS011;63801;49.414;19.474;2022-11-02T13:11:47;6.65;;;2.03;;
75218;SDS011;63801;49.414;19.474;2022-11-02T13:13:55;5.05;;;1.90;;
75218;SDS011;63801;49.414;19.474;2022-11-02T13:15:58;5.15;;;2.10;;
75218;SDS011;63801;49.414;19.474;2022-11-02T13:18:04;5.60;;;2.00;;
75218;SDS011;63801;49.414;19.474;2022-11-02T13:20:26;5.57;;;1.90;;
75218;SDS011;63801;49.414;19.474;2022-11-02T13:22:33;7.28;;;2.20;;